Latest Weather Observations for Mackay Airport

IDQ60801

Issued at 11:33 am EST Saturday 25 June 2016 (issued every 30 minutes, with the page automatically refreshed every 10 minutes)

About weather observations | Map of weather stations | Latest weather observations for QLD | Other Formats
Station Details ID: 033045 Name: MACKAY AERO Lat: -21.17 Lon: 149.18 Height: 4.7 m
Data from the previous 72 hours. | See also: Recent months at Mackay Airport
Date/Time
EST
Temp
°C
App
Temp
°C
Dew
Point
°C
Rel
Hum
%
Delta-T
°C
Wind Press
QNH
hPa
Press
MSL
hPa
Rain since
9am
mm
Dir  Spd
km/h
Gust
km/h
Spd
kts
Gust
kts
25/11:00am 20.4 17.3 12.1 59 4.6 SE 20 24 11 13 1018.8 1018.8 0.0
25/10:30am 19.8 16.7 11.6 59 4.5 SE 19 26 10 14 1019.1 1019.1 0.0
25/10:00am 19.5 16.5 12.0 62 4.2 SE 19 24 10 13 1019.3 1019.3 0.0
25/09:30am 19.2 16.9 12.9 67 3.5 SE 17 22 9 12 1019.3 1019.3 0.0
25/09:00am 18.3 15.8 12.3 68 3.3 SSE 17 22 9 12 1019.2 1019.2 0.6
25/08:30am 17.6 15.2 12.7 73 2.7 SSE 17 20 9 11 1019.1 1019.1 0.6
25/08:00am 17.1 14.3 13.2 78 2.2 SSE 20 26 11 14 1018.5 1018.5 0.6
25/07:30am 16.8 14.3 13.5 81 1.9 SE 19 24 10 13 1018.1 1018.1 0.6
25/07:00am 16.4 14.6 13.3 82 1.7 SSE 15 19 8 10 1017.7 1017.7 0.6
25/06:30am 16.3 14.5 13.4 83 1.6 SSE 15 20 8 11 1017.3 1017.3 0.6
25/06:00am 16.0 15.5 13.7 86 1.3 SE 9 17 5 9 1016.9 1016.9 0.6
25/05:30am 15.5 14.2 13.7 89 1.0 SSW 13 15 7 8 1016.4 1016.4 0.6
25/05:00am 15.5 14.8 14.2 92 0.7 SSW 11 13 6 7 1016.3 1016.3 0.6
25/04:30am 15.3 14.3 14.5 95 0.5 SW 13 17 7 9 1015.8 1015.8 0.6
25/04:00am 15.7 15.7 15.2 97 0.3 SW 9 13 5 7 1015.7 1015.7 0.6
25/03:30am 15.9 15.2 15.3 96 0.3 SW 13 17 7 9 1015.6 1015.6 0.6
25/03:00am 16.5 16.4 16.0 97 0.3 SSW 11 13 6 7 1015.4 1015.4 0.6
25/02:30am 17.0 17.1 16.5 97 0.3 SSW 11 13 6 7 1015.5 1015.5 0.6
25/02:00am 17.1 16.9 16.8 98 0.2 SW 13 15 7 8 1015.3 1015.3 0.6
25/01:30am 17.7 17.4 17.4 98 0.2 SW 15 17 8 9 1015.5 1015.5 0.6
25/01:00am 17.7 18.1 17.2 97 0.3 WSW 11 13 6 7 1015.7 1015.7 0.6
25/12:30am 18.5 20.1 18.2 98 0.2 WSW 7 9 4 5 1015.8 1015.8 0.6
25/12:29am 18.6 20.2 18.3 98 0.2 WSW 7 9 4 5 1015.8 1015.8 0.6
25/12:00am 19.0 21.0 18.7 98 0.2 WSW 6 7 3 4 1015.9 1015.9 0.6
 
Date/Time
EST
Temp
°C
App
Temp
°C
Dew
Point
°C
Rel
Hum
%
Delta-T
°C
Wind Press
QNH
hPa
Press
MSL
hPa
Rain since
9am
mm
Dir  Spd
km/h
Gust
km/h
Spd
kts
Gust
kts
24/11:30pm 19.3 20.8 19.0 98 0.2 WSW 9 11 5 6 1016.2 1016.2 0.6
24/11:00pm 19.4 21.6 19.1 98 0.2 WSW 6 6 3 3 1016.2 1016.2 0.6
24/10:30pm 19.4 21.0 19.1 98 0.2 SW 9 13 5 7 1016.0 1016.0 0.6
24/10:00pm 19.8 22.0 19.5 98 0.2 S 7 7 4 4 1015.8 1015.8 0.6
24/09:30pm 20.8 24.8 20.5 98 0.2 CALM 0 6 0 3 1015.9 1015.9 0.6
24/09:00pm 21.0 23.7 20.7 98 0.2 S 7 7 4 4 1015.6 1015.6 0.6
24/08:42pm 20.5 22.6 20.2 98 0.2 S 9 9 5 5 1015.5 1015.5 0.6
24/08:30pm 20.9 23.2 20.6 98 0.2 S 9 9 5 5 1015.4 1015.4 0.6
24/08:00pm 21.7 24.0 21.4 98 0.2 NE 11 20 6 11 1015.2 1015.2 0.6
24/07:43pm 21.4 25.7 21.1 98 0.2 CALM 0 0 0 0 1014.9 1014.9 0.6
24/07:30pm 22.1 26.7 21.8 98 0.2 CALM 0 0 0 0 1014.8 1014.8 0.6
24/07:25pm 21.8 26.3 21.5 98 0.2 CALM 0 0 0 0 1014.7 1014.7 0.6
24/07:00pm 23.0 28.1 22.7 98 0.2 CALM 0 0 0 0 1014.5 1014.5 0.6
24/06:30pm 23.4 27.4 23.1 98 0.2 NE 7 9 4 5 1014.1 1014.1 0.6
24/06:00pm 24.0 27.7 23.3 96 0.5 NE 9 13 5 7 1013.6 1013.6 0.6
24/05:30pm 24.5 28.0 23.6 95 0.6 NE 11 17 6 9 1013.3 1013.3 0.6
24/05:00pm 24.6 28.2 23.7 95 0.6 NE 11 15 6 8 1012.9 1012.9 0.6
24/04:30pm 24.2 26.9 23.5 96 0.5 E 15 19 8 10 1012.7 1012.7 0.6
24/04:00pm 25.6 29.2 23.7 89 1.3 N 11 19 6 10 1012.2 1012.2 0.6
24/03:30pm 25.4 29.3 24.2 93 0.8 ENE 11 15 6 8 1011.7 1011.7 0.6
24/03:00pm 25.6 28.2 24.0 91 1.1 NNE 17 20 9 11 1011.5 1011.5 0.6
24/02:30pm 28.0 29.2 22.2 70 3.9 N 19 24 10 13 1011.5 1011.5 0.0
24/02:00pm 27.8 29.8 23.6 78 2.9 ENE 19 22 10 12 1011.7 1011.7 0.0
24/01:30pm 27.5 29.4 22.7 75 3.3 NE 17 22 9 12 1012.2 1012.2 0.0
24/01:00pm 27.8 29.6 23.2 76 3.1 NE 19 22 10 12 1012.5 1012.5 0.0
24/12:30pm 28.2 30.7 23.8 77 3.0 NE 17 22 9 12 1013.0 1013.0 0.0
24/12:00pm 28.8 31.6 20.8 62 5.3 NW 7 13 4 7 1013.7 1013.7 0.0
24/11:30am 27.9 30.0 21.0 66 4.6 W 11 15 6 8 1014.3 1014.3 0.0
24/11:00am 27.2 30.4 21.7 72 3.7 W 7 13 4 7 1014.7 1014.7 0.0
24/10:30am 26.9 30.1 22.3 76 3.1 NW 9 15 5 8 1015.0 1015.0 0.0
24/10:00am 25.5 29.2 23.2 87 1.6 WNW 9 13 5 7 1015.2 1015.2 0.0
24/09:30am 24.1 28.4 23.6 97 0.3 WSW 7 9 4 5 1015.3 1015.3 0.0
24/09:00am 22.7 26.5 22.4 98 0.2 WSW 6 11 3 6 1015.5 1015.5 0.0
24/08:38am 21.7 25.0 21.4 98 0.2 W 6 9 3 5 1015.5 1015.5 0.0
24/08:30am 21.6 24.6 21.3 98 0.2 W 7 9 4 5 1015.3 1015.3 0.0
24/08:05am 21.2 23.3 20.9 98 0.2 W 11 15 6 8 1015.1 1015.1 0.0
24/08:00am 21.1 23.1 20.8 98 0.2 W 11 15 6 8 1014.9 1014.9 0.0
24/07:30am 21.0 23.7 20.7 98 0.2 WSW 7 9 4 5 1014.7 1014.7 0.0
24/07:00am 20.6 22.8 20.3 98 0.2 SSW 9 9 5 5 1014.2 1014.2 0.0
24/06:30am 20.4 23.4 20.1 98 0.2 SSW 4 6 2 3 1013.7 1013.7 0.0
24/06:00am 20.6 23.3 20.3 98 0.2 SSW 6 7 3 4 1013.5 1013.5 0.0
24/05:40am 20.5 23.6 20.2 98 0.2 SSW 4 6 2 3 1013.2 1013.2 0.0
24/05:30am 20.5 23.6 20.2 98 0.2 SSW 4 6 2 3 1013.1 1013.1 0.0
24/05:00am 20.2 22.7 19.9 98 0.2 SSW 6 7 3 4 1013.1 1013.1 0.0
24/04:48am 19.8 22.9 19.5 98 0.2 SSW 2 7 1 4 1013.1 1013.1 0.0
24/04:30am 19.2 22.4 18.9 98 0.2 CALM 0 0 0 0 1013.0 1013.0 0.0
24/04:24am 19.1 22.3 18.8 98 0.2 CALM 0 0 0 0 1012.9 1012.9 0.0
24/04:00am 18.2 21.0 17.9 98 0.2 CALM 0 0 0 0 1013.0 1013.0 0.0
24/03:30am 19.0 21.0 18.7 98 0.2 SSW 6 7 3 4 1013.0 1013.0 0.0
24/03:06am 19.0 22.1 18.7 98 0.2 CALM 0 0 0 0 1013.0 1013.0 0.0
24/03:00am 19.1 22.3 18.8 98 0.2 CALM 0 0 0 0 1013.0 1013.0 0.0
24/02:49am 19.4 21.4 19.1 98 0.2 SSW 7 9 4 5 1013.0 1013.0 0.0
24/02:30am 18.6 20.2 18.3 98 0.2 NNW 7 9 4 5 1013.1 1013.1 0.0
24/02:19am 19.3 21.8 19.0 98 0.2 NNW 4 6 2 3 1013.0 1013.0 0.0
24/02:00am 18.6 20.2 18.3 98 0.2 NNW 7 9 4 5 1013.2 1013.2 0.0
24/01:30am 19.3 20.5 19.0 98 0.2 SW 11 13 6 7 1013.7 1013.7 0.0
24/01:24am 19.2 20.3 18.9 98 0.2 SW 11 13 6 7 1013.8 1013.8 0.0
24/01:10am 19.0 20.4 18.7 98 0.2 ENE 9 11 5 6 1013.8 1013.8 0.0
24/01:00am 19.6 21.7 19.3 98 0.2 ENE 7 9 4 5 1013.8 1013.8 0.0
24/12:43am 18.5 20.1 18.2 98 0.2 ENE 7 9 4 5 1013.9 1013.9 0.0
24/12:30am 19.3 20.8 19.0 98 0.2 ENE 9 9 5 5 1013.7 1013.7 0.0
24/12:14am 20.0 22.4 19.7 98 0.2 ENE 6 9 3 5 1013.7 1013.7 0.0
24/12:13am 19.9 22.3 19.6 98 0.2 ENE 6 7 3 4 1013.7 1013.7 0.0
24/12:00am 19.3 21.2 19.0 98 0.2 ENE 7 9 4 5 1013.8 1013.8 0.0
 
Date/Time
EST
Temp
°C
App
Temp
°C
Dew
Point
°C
Rel
Hum
%
Delta-T
°C
Wind Press
QNH
hPa
Press
MSL
hPa
Rain since
9am
mm
Dir  Spd
km/h
Gust
km/h
Spd
kts
Gust
kts
23/11:30pm 19.8 22.1 19.5 98 0.2 ENE 6 7 3 4 1014.2 1014.2 0.0
23/11:07pm 20.5 24.3 20.2 98 0.2 CALM 0 0 0 0 1014.4 1014.4 0.0
23/11:00pm 20.2 23.9 19.9 98 0.2 CALM 0 0 0 0 1014.5 1014.5 0.0
23/10:58pm 20.3 24.0 20.0 98 0.2 CALM 0 0 0 0 1014.4 1014.4 0.0
23/10:30pm 21.4 25.7 21.1 98 0.2 CALM 0 0 0 0 1014.4 1014.4 0.0
23/10:24pm 21.3 25.5 21.0 98 0.2 CALM 0 0 0 0 1014.4 1014.4 0.0
23/10:00pm 21.4 25.7 21.1 98 0.2 CALM 0 0 0 0 1014.4 1014.4 0.0
23/09:30pm 21.9 25.3 21.6 98 0.2 ENE 6 7 3 4 1014.4 1014.4 0.0
23/09:00pm 22.1 25.4 21.8 98 0.2 ENE 7 9 4 5 1014.3 1014.3 0.0
23/08:30pm 22.3 25.7 22.0 98 0.2 ENE 7 9 4 5 1014.0 1014.0 0.0
23/08:00pm 21.7 26.1 21.4 98 0.2 CALM 0 0 0 0 1013.9 1013.9 0.0
23/07:50pm 21.8 26.3 21.5 98 0.2 CALM 0 0 0 0 1013.9 1013.9 0.0
23/07:30pm 22.2 26.9 21.9 98 0.2 CALM 0 4 0 2 1013.8 1013.8 0.0
23/07:06pm 22.3 25.9 22.0 98 0.2 ENE 6 7 3 4 1013.2 1013.2 0.0
23/07:00pm 22.4 26.0 22.1 98 0.2 ENE 6 7 3 4 1013.2 1013.2 0.0
23/06:36pm 22.7 26.3 22.4 98 0.2 ENE 7 9 4 5 1012.8 1012.8 0.0
23/06:30pm 22.8 26.5 22.5 98 0.2 ENE 7 11 4 6 1012.8 1012.8 0.0
23/06:00pm 22.7 25.9 22.4 98 0.2 E 9 11 5 6 1012.5 1012.5 0.0
23/05:30pm 22.9 25.8 22.4 97 0.3 ENE 11 13 6 7 1012.3 1012.3 0.0
23/05:22pm 22.9 25.8 22.4 97 0.3 ENE 11 17 6 9 1012.2 1012.2 0.0
23/05:00pm 23.0 24.7 22.3 96 0.5 ENE 17 20 9 11 1011.9 1011.9 0.0
23/04:30pm 23.5 24.6 22.3 93 0.8 ENE 20 24 11 13 1011.6 1011.6 0.0
23/04:00pm 23.8 24.9 22.4 92 0.9 ENE 20 26 11 14 1011.7 1011.7 0.0
23/03:30pm 23.9 24.6 22.3 91 1.1 ENE 22 28 12 15 1011.8 1011.8 0.0
23/03:00pm 24.2 25.0 22.5 90 1.1 ENE 22 26 12 14 1011.8 1011.8 0.0
23/02:30pm 24.4 25.6 22.5 89 1.3 E 20 26 11 14 1011.9 1011.9 0.0
23/02:00pm 24.0 24.9 21.9 88 1.4 ESE 20 26 11 14 1012.4 1012.4 0.0
23/01:30pm 24.6 26.1 22.7 89 1.3 ESE 19 24 10 13 1012.9 1012.9 0.0
23/01:00pm 24.6 26.2 22.1 86 1.7 ESE 17 20 9 11 1013.3 1013.3 0.0
23/12:30pm 24.6 26.2 21.5 83 2.1 E 15 19 8 10 1013.7 1013.7 0.0
23/12:00pm 24.9 26.5 22.2 85 1.8 E 17 20 9 11 1014.3 1014.3 0.0
23/11:30am 24.4 26.4 21.5 84 1.9 E 13 17 7 9 1014.7 1014.7 0.0
23/11:00am 24.3 26.2 20.6 80 2.4 ESE 11 13 6 7 1015.2 1015.2 0.0
23/10:30am 24.3 27.4 21.4 84 1.9 S 7 11 4 6 1015.5 1015.5 0.0
23/10:00am 23.6 26.9 20.7 84 1.9 S 4 7 2 4 1015.7 1015.7 0.0
23/09:30am 22.8 25.9 21.4 92 0.9 SW 7 9 4 5 1015.8 1015.8 0.0
23/09:00am 21.6 24.5 20.6 94 0.6 WSW 6 7 3 4 1015.7 1015.7 0.0
23/08:30am 21.0 22.0 20.3 96 0.4 W 15 17 8 9 1015.4 1015.4 0.0
23/08:00am 20.4 22.4 19.9 97 0.3 WNW 9 13 5 7 1015.2 1015.2 0.0
23/07:30am 19.4 21.4 19.1 98 0.2 WNW 7 13 4 7 1014.9 1014.9 0.0
23/07:00am 19.0 20.0 18.7 98 0.2 NW 11 13 6 7 1014.5 1014.5 0.0
23/06:30am 19.0 20.0 18.7 98 0.2 WSW 11 13 6 7 1014.2 1014.2 0.0
23/06:00am 20.1 22.0 19.8 98 0.2 WSW 9 13 5 7 1014.2 1014.2 0.0
23/05:30am 20.1 22.4 19.8 98 0.2 S 7 9 4 5 1013.7 1013.7 0.0
23/05:00am 19.9 22.3 19.6 98 0.2 S 6 7 3 4 1013.7 1013.7 0.0
23/04:30am 20.0 22.2 19.7 98 0.2 S 7 11 4 6 1013.5 1013.5 0.0
23/04:00am 20.5 21.8 20.2 98 0.2 SSW 13 17 7 9 1013.9 1013.9 0.0
23/03:30am 20.6 24.1 20.3 98 0.2 SSW 2 6 1 3 1014.0 1014.0 0.0
23/03:00am 20.7 24.2 20.4 98 0.2 SSW 2 6 1 3 1013.9 1013.9 0.0
23/02:30am 20.7 22.9 20.4 98 0.2 SSW 9 11 5 6 1013.9 1013.9 0.0
23/02:00am 20.6 24.5 20.3 98 0.2 CALM 0 0 0 0 1014.0 1014.0 0.0
23/01:30am 20.5 23.2 20.2 98 0.2 SSW 6 7 3 4 1014.1 1014.1 0.0
23/01:00am 20.4 23.4 20.1 98 0.2 SSW 4 7 2 4 1014.4 1014.4 0.0
23/12:30am 20.2 23.9 19.9 98 0.2 CALM 0 0 0 0 1014.6 1014.6 0.0
23/12:00am 20.8 24.8 20.5 98 0.2 CALM 0 0 0 0 1014.6 1014.6 0.0
 
Date/Time
EST
Temp
°C
App
Temp
°C
Dew
Point
°C
Rel
Hum
%
Delta-T
°C
Wind Press
QNH
hPa
Press
MSL
hPa
Rain since
9am
mm
Dir  Spd
km/h
Gust
km/h
Spd
kts
Gust
kts
22/11:47pm 20.8 24.8 20.5 98 0.2 CALM 0 6 0 3 1014.6 1014.6 0.0
22/11:30pm 20.7 23.9 20.4 98 0.2 SSW 4 6 2 3 1014.7 1014.7 0.0
22/11:00pm 20.6 23.7 20.3 98 0.2 SSW 4 9 2 5 1014.9 1014.9 0.0
22/10:30pm 20.6 22.8 20.3 98 0.2 SSW 9 11 5 6 1015.1 1015.1 0.0
22/10:00pm 20.7 23.3 20.4 98 0.2 SSW 7 9 4 5 1015.0 1015.0 0.0
22/09:30pm 20.7 22.9 20.4 98 0.2 SSW 9 11 5 6 1015.0 1015.0 0.0
22/09:00pm 20.5 22.6 20.2 98 0.2 SSW 9 13 5 7 1014.9 1014.9 0.0
22/08:30pm 20.3 22.3 20.0 98 0.2 SSW 9 11 5 6 1014.6 1014.6 0.0
22/08:00pm 20.6 23.3 20.3 98 0.2 SSW 6 7 3 4 1014.5 1014.5 0.0
22/07:34pm 20.5 22.6 20.2 98 0.2 NE 9 9 5 5 1014.2 1014.2 0.0
22/07:30pm 20.3 22.9 20.0 98 0.2 NE 6 9 3 5 1014.2 1014.2 0.0
22/07:00pm 20.4 23.8 20.1 98 0.2 NE 2 6 1 3 1013.8 1013.8 0.0
22/06:30pm 21.4 24.5 21.1 98 0.2 NE 6 7 3 4 1013.2 1013.2 0.0
22/06:00pm 21.7 24.3 21.2 97 0.3 NE 9 11 5 6 1013.0 1013.0 0.0
22/05:30pm 22.1 24.1 20.7 92 0.9 ENE 11 15 6 8 1012.9 1012.9 0.0
22/05:00pm 22.9 24.3 20.4 86 1.6 ENE 13 17 7 9 1012.4 1012.4 0.0
22/04:30pm 23.9 25.0 19.6 77 2.8 NE 13 17 7 9 1012.3 1012.3 0.0
22/04:00pm 24.5 25.4 19.3 73 3.3 NE 13 17 7 9 1012.1 1012.1 0.0
22/03:30pm 25.2 26.1 20.0 73 3.4 NE 15 19 8 10 1012.1 1012.1 0.0
22/03:00pm 25.0 25.5 20.0 74 3.2 NE 17 20 9 11 1012.2 1012.2 0.0
22/02:30pm 24.7 24.8 20.0 75 3.0 NE 19 24 10 13 1012.2 1012.2 0.0
22/02:00pm 23.7 23.6 19.6 78 2.6 ENE 19 22 10 12 1012.7 1012.7 0.0
22/01:30pm 24.2 24.4 19.3 74 3.1 ENE 17 20 9 11 1013.0 1013.0 0.0
22/01:00pm 24.0 23.8 18.6 72 3.4 ENE 17 20 9 11 1013.2 1013.2 0.0
22/12:30pm 24.7 24.9 17.7 65 4.4 E 13 17 7 9 1013.5 1013.5 0.0
22/12:00pm 24.6 25.0 18.1 67 4.1 E 13 17 7 9 1013.9 1013.9 0.0

Other Formats:

Comma delimited format used in spreadsheet applications
http://www.bom.gov.au/fwo/IDQ60801/IDQ60801.95367.axf

JavaScript Object Notation format (JSON) in row-major order
http://www.bom.gov.au/fwo/IDQ60801/IDQ60801.95367.json